Time;durP1;ratioP1;P1;durP2;ratioP2;P2;SDS_P1;SDS_P2;PMS_P1;PMS_P2;Temp;Humidity;BMP_temperature;BMP_pressure;BME280_temperature;BME280_humidity;BME280_pressure;Samples;Min_cycle;Max_cycle;Signal;HPM_P1;HPM_P2
2022/11/08 00:01:51;;;;;;;38.45;19.13;;;;;;;2.40;83.51;100510.38;4888743;28;20053;-63
2022/11/08 00:04:45;;;;;;;42.45;18.48;;;;;;;2.45;83.17;100516.50;4895786;28;20103;-64
2022/11/08 00:16:41;;;;;;;39.33;19.80;;;;;;;3.12;81.17;100516.03;4879767;28;20059;-64
2022/11/08 00:19:22;;;;;;;42.08;19.50;;;;;;;3.23;80.31;100504.19;4891893;28;20057;-63
2022/11/08 00:22:11;;;;;;;34.85;18.85;;;;;;;3.41;79.87;100501.03;4881646;28;20502;-65
2022/11/08 00:24:50;;;;;;;38.78;19.98;;;;;;;3.50;79.57;100502.91;4888589;28;20040;-64
2022/11/08 00:27:35;;;;;;;40.78;20.05;;;;;;;3.69;79.39;100494.59;4879264;28;20044;-63
2022/11/08 00:30:15;;;;;;;37.28;18.83;;;;;;;3.87;78.53;100489.72;4875268;28;20076;-63
2022/11/08 00:33:17;;;;;;;37.40;19.27;;;;;;;4.03;78.23;100484.75;4893446;28;20067;-63
2022/11/08 00:35:57;;;;;;;37.55;20.00;;;;;;;4.22;77.01;100491.91;4911667;28;20069;-62
2022/11/08 00:38:50;;;;;;;46.08;19.92;;;;;;;4.32;75.80;100488.59;4908644;28;20037;-63
2022/11/08 00:44:44;;;;;;;43.45;21.90;;;;;;;4.53;75.15;100471.59;4823320;28;20051;-64
2022/11/08 00:47:34;;;;;;;47.83;22.00;;;;;;;4.82;74.07;100489.13;4887599;28;20074;-63
2022/11/08 00:50:34;;;;;;;39.45;19.20;;;;;;;4.96;73.39;100488.44;4885552;28;20041;-63
2022/11/08 00:56:22;;;;;;;34.67;17.30;;;;;;;5.27;72.11;100482.69;4856117;28;20118;-63
2022/11/08 00:59:06;;;;;;;34.85;17.33;;;;;;;5.36;72.36;100472.38;4881907;28;20045;-63
2022/11/08 01:01:53;;;;;;;31.63;15.55;;;;;;;5.50;70.71;100475.97;4920706;28;20059;-63
2022/11/08 01:04:39;;;;;;;25.27;13.55;;;;;;;5.65;69.45;100475.22;4912195;28;20049;-63
2022/11/08 01:07:18;;;;;;;34.10;14.48;;;;;;;5.72;68.83;100473.53;4903668;28;20052;-63
2022/11/08 01:10:11;;;;;;;31.30;13.60;;;;;;;5.79;67.81;100473.59;4911494;28;20049;-63
2022/11/08 01:13:13;;;;;;;30.15;14.07;;;;;;;5.88;66.52;100467.56;4875945;28;20113;-63
2022/11/08 01:16:08;;;;;;;30.27;14.80;;;;;;;5.95;65.68;100464.19;4881899;28;20049;-63
2022/11/08 01:19:05;;;;;;;27.55;14.48;;;;;;;5.96;64.96;100471.09;4894851;28;20057;-63
2022/11/08 01:21:45;;;;;;;29.27;14.90;;;;;;;6.04;64.94;100464.25;4883005;28;20071;-62
2022/11/08 01:24:27;;;;;;;28.83;14.35;;;;;;;6.12;64.45;100463.44;4889072;28;20042;-63
2022/11/08 01:26:59;;;;;;;26.77;13.57;;;;;;;6.23;64.30;100466.94;4902987;28;20104;-62
2022/11/08 01:29:54;;;;;;;36.10;15.20;;;;;;;6.24;63.12;100477.34;4879539;28;20049;-62
2022/11/08 01:32:34;;;;;;;30.90;13.45;;;;;;;6.31;62.52;100457.44;4874524;28;20084;-62
2022/11/08 01:35:39;;;;;;;22.88;12.77;;;;;;;6.36;62.19;100466.09;4853826;28;20068;-62
2022/11/08 01:38:38;;;;;;;29.77;14.32;;;;;;;6.18;61.47;100409.81;4880434;28;20053;-63
2022/11/08 01:41:24;;;;;;;28.33;14.63;;;;;;;6.56;61.61;100452.34;4904572;28;20048;-62
2022/11/08 01:44:21;;;;;;;26.45;14.23;;;;;;;6.64;60.62;100448.03;4874052;28;20242;-63
2022/11/08 01:47:12;;;;;;;24.33;12.65;;;;;;;6.74;59.81;100435.94;4840591;28;20320;-63
2022/11/08 01:49:58;;;;;;;23.38;13.40;;;;;;;6.82;58.70;100440.31;4854678;28;20154;-63
2022/11/08 01:55:47;;;;;;;25.02;12.38;;;;;;;6.85;58.30;100429.91;4899956;28;20131;-63
2022/11/08 01:58:27;;;;;;;22.25;11.23;;;;;;;6.95;57.00;100424.72;4868636;28;20042;-62
2022/11/08 02:01:20;;;;;;;19.30;10.57;;;;;;;6.93;55.89;100426.47;4867106;28;20061;-63
2022/11/08 02:07:09;;;;;;;18.77;10.77;;;;;;;7.05;56.76;100421.28;4886259;28;20069;-62
2022/11/08 02:09:58;;;;;;;20.95;10.35;;;;;;;6.81;54.68;100381.41;4896068;28;20061;-63
2022/11/08 02:12:47;;;;;;;18.95;10.95;;;;;;;7.05;55.04;100416.06;4846002;28;20521;-62
2022/11/08 02:15:40;;;;;;;19.20;10.27;;;;;;;7.13;55.10;100414.34;4897972;28;20133;-62
2022/11/08 02:18:33;;;;;;;22.42;10.68;;;;;;;7.19;54.72;100414.34;4888289;28;20098;-63
2022/11/08 02:21:36;;;;;;;21.58;10.25;;;;;;;7.16;53.19;100393.53;4902186;28;20084;-63
2022/11/08 02:24:25;;;;;;;17.67;9.88;;;;;;;6.94;53.15;100365.84;4898619;28;20594;-63
2022/11/08 02:30:14;;;;;;;13.95;8.93;;;;;;;7.29;51.75;100392.69;4889756;28;20046;-62
2022/11/08 02:33:31;;;;;;;17.92;9.00;;;;;;;7.28;51.08;100393.53;4898522;28;20037;-65
2022/11/08 02:36:26;;;;;;;14.45;8.48;;;;;;;7.19;50.31;100377.97;4879419;28;20694;-64
2022/11/08 02:42:23;;;;;;;82.10;12.57;;;;;;;7.32;50.55;100395.28;4919020;28;20046;-64
2022/11/08 02:45:06;;;;;;;14.13;8.15;;;;;;;7.35;49.67;100384.00;4902095;28;20083;-64
2022/11/08 02:47:41;;;;;;;17.42;9.43;;;;;;;7.38;49.94;100384.00;4879868;28;20041;-64
2022/11/08 02:53:38;;;;;;;17.10;9.27;;;;;;;7.35;49.11;100384.88;4862284;28;20072;-64
2022/11/08 02:59:46;;;;;;;14.75;8.45;;;;;;;7.48;49.22;100382.25;4875821;28;20041;-64
2022/11/08 03:03:07;;;;;;;16.60;7.80;;;;;;;7.42;48.97;100364.09;4871513;28;20782;-64
2022/11/08 03:06:27;;;;;;;15.60;8.60;;;;;;;7.47;48.88;100367.53;4889989;28;21426;-63
2022/11/08 03:09:30;;;;;;;15.52;7.30;;;;;;;7.47;47.85;100367.53;4897594;28;20091;-63
2022/11/08 03:12:19;;;;;;;13.50;7.50;;;;;;;7.37;47.70;100360.63;4867396;28;20042;-63
2022/11/08 03:15:00;;;;;;;13.75;7.43;;;;;;;7.47;48.83;100367.53;4812660;28;20383;-63
2022/11/08 03:17:54;;;;;;;15.32;7.95;;;;;;;7.57;47.96;100364.03;4819682;28;20880;-63
2022/11/08 03:23:36;;;;;;;10.80;6.65;;;;;;;7.67;46.76;100376.16;4880864;28;20453;-63
2022/11/08 03:26:19;;;;;;;13.50;6.60;;;;;;;7.67;45.93;100368.34;4905513;28;20073;-63
2022/11/08 03:29:06;;;;;;;11.38;6.68;;;;;;;7.45;45.05;100348.47;4867231;28;20493;-63
2022/11/08 03:32:10;;;;;;;22.33;6.40;;;;;;;7.75;44.84;100379.59;4895338;28;20052;-63
2022/11/08 03:34:54;;;;;;;10.48;6.05;;;;;;;7.74;44.46;100371.81;4846893;28;20049;-63
2022/11/08 03:37:28;;;;;;;13.63;6.38;;;;;;;7.75;44.50;100379.59;4866243;28;20060;-63
2022/11/08 03:40:10;;;;;;;12.10;6.22;;;;;;;7.80;44.81;100373.50;4875850;28;20494;-63
2022/11/08 03:42:47;;;;;;;13.32;6.55;;;;;;;7.78;44.91;100374.38;4918074;28;20705;-63
2022/11/08 03:45:28;;;;;;;13.07;6.57;;;;;;;7.78;45.63;100369.16;4887345;28;20070;-63
2022/11/08 03:48:13;;;;;;;10.20;6.45;;;;;;;7.81;45.97;100375.22;4887926;28;20049;-62
2022/11/08 03:51:07;;;;;;;12.38;6.82;;;;;;;7.66;44.85;100371.81;4879904;28;20049;-62
2022/11/08 03:53:54;;;;;;;13.55;6.90;;;;;;;7.58;45.20;100373.56;4870183;28;20106;-63
2022/11/08 03:56:28;;;;;;;11.65;6.82;;;;;;;7.65;45.83;100375.28;4880277;28;20050;-64
2022/11/08 03:59:20;;;;;;;11.02;6.82;;;;;;;7.73;45.97;100365.72;4884607;28;20504;-64
2022/11/08 04:01:58;;;;;;;9.63;6.05;;;;;;;7.77;45.61;100377.84;4832882;28;20178;-64
2022/11/08 04:04:37;;;;;;;10.27;6.43;;;;;;;7.73;44.49;100378.72;4881164;28;20106;-64
2022/11/08 04:07:40;;;;;;;15.50;6.45;;;;;;;7.68;44.92;100377.88;4857974;28;20235;-64
2022/11/08 04:17:07;;;;;;;13.07;7.13;;;;;;;7.81;46.17;100377.84;4882850;28;20053;-63
2022/11/08 04:23:28;;;;;;;11.88;6.38;;;;;;;7.84;44.85;100383.00;4859379;28;20077;-63
2022/11/08 04:26:05;;;;;;;13.98;6.35;;;;;;;7.74;44.65;100372.66;4853818;28;20064;-63
2022/11/08 04:28:44;;;;;;;12.05;6.80;;;;;;;7.84;45.38;100388.22;4849333;28;20073;-63
2022/11/08 04:31:31;;;;;;;10.32;6.10;;;;;;;7.86;45.00;100378.69;4825988;28;20069;-63
2022/11/08 04:37:24;;;;;;;10.57;5.88;;;;;;;7.77;43.61;100388.25;4866945;28;20050;-63
2022/11/08 04:40:16;;;;;;;15.27;6.10;;;;;;;7.72;43.22;100387.41;4852268;28;20077;-63
2022/11/08 04:42:59;;;;;;;9.57;5.30;;;;;;;7.63;43.38;100390.00;4847417;28;20050;-63
2022/11/08 04:45:38;;;;;;;10.57;5.43;;;;;;;7.62;43.69;100388.28;4834145;28;20042;-63
2022/11/08 04:48:28;;;;;;;10.23;5.93;;;;;;;7.57;43.71;100390.03;4855808;28;20330;-63
2022/11/08 04:51:08;;;;;;;16.08;6.30;;;;;;;7.48;43.72;100400.44;4860318;28;20334;-63
2022/11/08 04:56:40;;;;;;;10.48;6.22;;;;;;;7.41;44.92;100398.72;4902232;28;20048;-63
2022/11/08 05:02:11;;;;;;;16.77;6.90;;;;;;;7.29;45.95;100410.88;4862582;28;20065;-62
2022/11/08 05:05:05;;;;;;;14.00;6.78;;;;;;;7.17;45.33;100405.69;4870341;28;20049;-62
2022/11/08 05:08:00;;;;;;;11.18;6.75;;;;;;;7.12;46.16;100410.88;4848169;28;20072;-63
2022/11/08 05:13:51;;;;;;;12.52;7.03;;;;;;;7.11;47.36;100410.88;4897459;28;20632;-62
2022/11/08 05:25:19;;;;;;;13.73;7.13;;;;;;;6.82;47.41;100418.66;4872093;28;20047;-62
2022/11/08 05:27:56;;;;;;;16.40;6.82;;;;;;;6.77;47.82;100416.06;4904876;28;20111;-64
2022/11/08 05:30:43;;;;;;;;;;;;;;;6.74;46.63;100428.16;4895913;28;20072;-63
2022/11/08 05:33:17;;;;;;;14.07;7.38;;;;;;;6.63;47.13;100428.13;4898945;28;19935;-64
2022/11/08 05:36:12;;;;;;;18.30;8.05;;;;;;;6.53;47.47;100421.19;4892877;28;20049;-63
2022/11/08 05:38:52;;;;;;;14.15;7.50;;;;;;;6.50;47.59;100428.97;4897546;28;20158;-64
2022/11/08 05:41:35;;;;;;;13.40;7.18;;;;;;;6.44;47.45;100438.47;4903252;28;20395;-64
2022/11/08 05:44:53;;;;;;;11.93;7.05;;;;;;;6.34;47.59;100430.63;4872938;28;20085;-64
2022/11/08 05:47:49;;;;;;;16.77;7.60;;;;;;;6.31;48.24;100435.81;4853294;28;20093;-64
2022/11/08 05:50:45;;;;;;;20.55;8.35;;;;;;;6.25;48.00;100431.47;4829950;28;20035;-64
2022/11/08 05:53:33;;;;;;;17.13;8.00;;;;;;;6.19;47.92;100436.63;4834435;28;20050;-63
2022/11/08 05:56:24;;;;;;;19.77;8.30;;;;;;;6.05;47.10;100442.63;4861589;28;20085;-63
2022/11/08 05:59:09;;;;;;;12.70;7.53;;;;;;;5.95;47.58;100448.63;4847105;28;20065;-62
2022/11/08 06:02:20;;;;;;;17.17;8.00;;;;;;;5.95;49.31;100448.63;4871712;28;20058;-64
2022/11/08 06:05:05;;;;;;;16.27;7.03;;;;;;;5.91;48.32;100453.75;4856096;28;20085;-64
2022/11/08 06:07:47;;;;;;;20.45;7.03;;;;;;;5.81;47.24;100445.06;4828864;28;20065;-63
2022/11/08 06:10:31;;;;;;;12.20;6.85;;;;;;;5.76;48.12;100459.72;4869190;28;20150;-64
2022/11/08 06:13:05;;;;;;;27.63;8.10;;;;;;;5.68;48.16;100458.81;4814325;28;20079;-64
2022/11/08 06:18:36;;;;;;;24.77;8.00;;;;;;;5.25;47.30;100427.41;4848107;28;20042;-63
2022/11/08 06:21:25;;;;;;;19.50;8.45;;;;;;;5.34;47.80;100462.03;4851313;28;20059;-64
2022/11/08 06:30:18;;;;;;;28.23;8.70;;;;;;;5.07;49.61;100475.59;4871001;28;20061;-64
2022/11/08 06:35:49;;;;;;;20.45;7.65;;;;;;;4.95;49.57;100486.72;4893423;28;20072;-63
2022/11/08 06:38:32;;;;;;;22.00;8.30;;;;;;;4.87;50.17;100492.69;4892806;28;21239;-64
2022/11/08 06:41:21;;;;;;;24.25;8.93;;;;;;;4.81;51.78;100490.88;4903568;28;20048;-64
2022/11/08 06:44:13;;;;;;;21.63;8.35;;;;;;;4.69;52.15;100489.03;4925927;28;20091;-64
2022/11/08 06:47:05;;;;;;;15.82;8.00;;;;;;;4.67;52.50;100495.91;4864780;28;20073;-64
2022/11/08 06:49:40;;;;;;;21.40;8.80;;;;;;;4.59;53.02;100497.50;4892333;28;20045;-64
2022/11/08 06:52:24;;;;;;;18.80;9.25;;;;;;;4.52;54.30;100503.50;4854885;28;20052;-65
2022/11/08 06:55:13;;;;;;;15.77;8.35;;;;;;;4.46;55.41;100495.66;4901111;28;20111;-64
2022/11/08 06:57:57;;;;;;;18.80;9.60;;;;;;;4.21;55.39;100490.16;4873195;28;20105;-65
2022/11/08 07:00:59;;;;;;;16.67;9.32;;;;;;;4.12;55.80;100484.88;4893688;28;20042;-64
2022/11/08 07:03:44;;;;;;;22.85;9.05;;;;;;;4.04;57.00;100502.00;4888113;28;20483;-65
2022/11/08 07:06:34;;;;;;;17.55;8.43;;;;;;;3.81;55.92;100510.28;4905726;28;20076;-65
2022/11/08 07:09:22;;;;;;;16.80;8.20;;;;;;;3.53;56.26;100513.28;4904186;28;20078;-64
2022/11/08 07:12:13;;;;;;;44.03;21.90;;;;;;;3.03;58.23;100515.03;4908354;28;20053;-65
2022/11/08 07:14:56;;;;;;;156.32;65.85;;;;;;;2.55;59.14;100497.78;4800906;28;20241;-64
2022/11/08 07:17:39;;;;;;;129.00;54.70;;;;;;;2.30;60.57;100511.88;4853734;28;20046;-63
2022/11/08 07:20:26;;;;;;;66.70;28.40;;;;;;;2.08;61.53;100518.28;4891710;28;20077;-63
2022/11/08 07:23:21;;;;;;;39.28;17.00;;;;;;;1.93;62.56;100521.38;4870836;28;21149;-64
2022/11/08 07:26:09;;;;;;;16.75;9.45;;;;;;;1.85;63.17;100522.06;4897925;28;20072;-68
2022/11/08 07:29:02;;;;;;;24.05;12.18;;;;;;;1.60;63.77;100531.78;4869727;28;20329;-67
2022/11/08 07:38:20;;;;;;;70.47;28.23;;;;;;;1.39;65.39;100538.97;4891543;28;20096;-64
2022/11/08 07:41:30;;;;;;;126.72;46.08;;;;;;;1.20;65.23;100541.06;4836448;28;20069;-65
2022/11/08 07:44:16;;;;;;;51.47;20.27;;;;;;;1.20;65.74;100551.38;4883106;28;20050;-64
2022/11/08 07:47:07;;;;;;;24.20;12.27;;;;;;;1.20;65.70;100551.38;4797835;28;21116;-64
2022/11/08 07:50:03;;;;;;;47.05;19.23;;;;;;;1.04;65.61;100564.66;4892185;28;20076;-64
2022/11/08 07:52:59;;;;;;;40.60;20.63;;;;;;;0.78;66.11;100567.38;4877479;28;20121;-66
2022/11/08 07:55:57;;;;;;;46.92;21.10;;;;;;;0.53;68.00;100518.66;4860126;28;20056;-65
2022/11/08 07:58:52;;;;;;;25.38;12.48;;;;;;;0.67;67.59;100568.78;4883230;28;20060;-64
2022/11/08 08:01:38;;;;;;;23.83;12.52;;;;;;;0.57;67.98;100572.78;4880803;28;20045;-64
2022/11/08 08:04:17;;;;;;;26.83;14.60;;;;;;;0.58;68.27;100573.66;4892466;28;20066;-66
2022/11/08 08:06:54;;;;;;;12.85;8.07;;;;;;;0.48;67.90;100580.25;4853940;28;20077;-65
2022/11/08 08:09:49;;;;;;;13.85;8.50;;;;;;;0.45;67.83;100572.44;4845639;28;20054;-65
2022/11/08 08:12:41;;;;;;;16.70;7.90;;;;;;;0.56;67.60;100593.31;4892078;28;20326;-65
2022/11/08 08:15:37;;;;;;;18.65;9.25;;;;;;;0.78;69.40;100581.97;4867751;28;20050;-65
2022/11/08 08:18:36;;;;;;;17.77;8.57;;;;;;;0.83;67.13;100594.13;4860585;28;20074;-65
2022/11/08 08:21:35;;;;;;;39.85;15.50;;;;;;;0.77;66.26;100599.06;4837397;28;20041;-65
2022/11/08 08:24:23;;;;;;;18.30;10.38;;;;;;;0.74;65.96;100601.56;4874351;28;20060;-65
2022/11/08 08:27:16;;;;;;;15.05;8.82;;;;;;;0.66;66.24;100613.34;4828929;28;20487;-66
2022/11/08 08:30:09;;;;;;;14.93;8.27;;;;;;;0.48;67.01;100607.66;4857155;28;20073;-66
2022/11/08 08:32:42;;;;;;;33.50;16.15;;;;;;;0.30;67.39;100603.69;4868727;28;20102;-67
2022/11/08 08:36:07;;;;;;;28.38;12.90;;;;;;;0.11;68.00;100621.94;4856717;28;20050;-64
2022/11/08 08:38:45;;;;;;;27.80;9.40;;;;;;;0.07;68.27;100626.09;4894973;28;20057;-65
2022/11/08 08:41:34;;;;;;;106.22;43.45;;;;;;;0.10;68.85;100622.75;4883955;28;20038;-66
2022/11/08 08:44:12;;;;;;;229.90;86.82;;;;;;;0.12;68.95;100628.81;4866524;28;20080;-65
2022/11/08 08:46:54;;;;;;;256.58;92.15;;;;;;;0.17;68.80;100637.53;4888965;28;20050;-66
2022/11/08 08:49:36;;;;;;;104.07;42.28;;;;;;;-0.03;68.68;100637.75;4885855;28;20072;-66
2022/11/08 08:52:27;;;;;;;21.38;10.40;;;;;;;-0.19;69.13;100635.53;4861039;28;20053;-64
2022/11/08 08:55:19;;;;;;;19.98;8.45;;;;;;;-0.23;69.11;100641.38;4910570;28;20067;-67
2022/11/08 08:58:29;;;;;;;14.40;7.30;;;;;;;-0.32;69.30;100641.09;4905176;28;20049;-66
2022/11/08 09:01:16;;;;;;;15.68;7.53;;;;;;;-0.46;69.82;100641.47;4847734;28;20052;-65
2022/11/08 09:04:16;;;;;;;16.70;7.28;;;;;;;-0.59;70.26;100647.03;4926738;28;20056;-64
2022/11/08 09:06:48;;;;;;;11.23;7.07;;;;;;;-0.93;70.58;100583.38;4867937;28;20085;-65
2022/11/08 09:09:42;;;;;;;12.52;7.20;;;;;;;-0.57;70.26;100645.41;4866033;28;20349;-66
2022/11/08 09:12:29;;;;;;;14.13;7.57;;;;;;;-0.58;70.52;100653.88;4866082;28;20104;-64
2022/11/08 09:15:15;;;;;;;13.27;6.68;;;;;;;-0.60;70.10;100660.69;4872677;28;20338;-65
2022/11/08 09:18:08;;;;;;;12.35;7.22;;;;;;;-0.64;69.94;100653.69;4888581;28;21011;-64
2022/11/08 09:21:09;;;;;;;11.60;6.95;;;;;;;-0.69;70.50;100655.22;4869165;28;20050;-65
2022/11/08 09:23:51;;;;;;;13.60;6.82;;;;;;;-0.79;70.84;100646.31;4877603;28;20092;-65
2022/11/08 09:26:38;;;;;;;12.23;7.38;;;;;;;-0.83;71.17;100644.47;4855498;28;20789;-64
2022/11/08 09:29:16;;;;;;;14.73;8.02;;;;;;;-0.50;71.86;100656.72;4856751;28;20069;-64
2022/11/08 09:32:07;;;;;;;18.40;8.55;;;;;;;-0.48;69.86;100661.09;4903515;28;20147;-64
2022/11/08 09:35:06;;;;;;;18.67;8.90;;;;;;;-0.30;70.61;100655.72;4836041;28;20053;-65
2022/11/08 09:37:47;;;;;;;25.58;9.25;;;;;;;-0.19;70.82;100663.78;4886928;28;20045;-64
2022/11/08 09:40:37;;;;;;;18.60;9.85;;;;;;;-0.24;70.58;100655.06;4917031;28;20072;-65
2022/11/08 09:43:57;;;;;;;23.10;11.15;;;;;;;-0.09;71.39;100665.84;4861688;28;20048;-65
2022/11/08 09:46:47;;;;;;;16.73;8.27;;;;;;;-0.17;71.28;100653.59;4845024;28;20294;-66
2022/11/08 09:49:33;;;;;;;;;;;;;;;-0.28;70.13;100664.34;4875766;28;20077;-65
2022/11/08 09:52:36;;;;;;;10.82;6.80;;;;;;;-0.38;70.02;100666.56;4865326;28;19917;-66
2022/11/08 09:55:46;;;;;;;13.75;7.65;;;;;;;-0.45;69.73;100653.50;4872650;28;20040;-65
2022/11/08 09:58:39;;;;;;;10.40;6.55;;;;;;;-0.48;69.40;100635.41;4890406;28;20058;-65
2022/11/08 10:01:45;;;;;;;16.30;10.00;;;;;;;-0.35;69.05;100669.22;4880121;28;20317;-66
2022/11/08 10:04:40;;;;;;;10.55;6.93;;;;;;;-0.63;69.33;100632.31;4894010;28;20065;-65
2022/11/08 10:07:30;;;;;;;9.30;5.78;;;;;;;-0.53;69.54;100670.31;4901104;28;20075;-64
2022/11/08 10:10:54;;;;;;;9.65;5.53;;;;;;;-0.56;70.22;100672.78;4874630;28;20064;-65
2022/11/08 10:13:44;;;;;;;11.73;5.75;;;;;;;-0.47;70.32;100673.13;4897859;28;20175;-65
2022/11/08 10:16:41;;;;;;;12.23;6.28;;;;;;;-0.41;70.79;100674.16;4889406;28;20261;-66
2022/11/08 10:19:48;;;;;;;12.52;7.32;;;;;;;-0.38;71.33;100651.16;4895767;28;20082;-65
2022/11/08 10:22:45;;;;;;;16.77;8.43;;;;;;;-0.45;71.04;100650.06;4891047;28;20056;-66
2022/11/08 10:25:43;;;;;;;20.40;8.50;;;;;;;-0.26;71.52;100672.09;4890587;28;20059;-66
2022/11/08 10:28:32;;;;;;;14.63;8.65;;;;;;;-0.16;72.16;100674.16;4881968;28;20053;-66
2022/11/08 10:31:16;;;;;;;13.15;8.35;;;;;;;-0.15;72.35;100670.78;4900750;28;20052;-65
2022/11/08 10:34:10;;;;;;;22.67;8.60;;;;;;;-0.13;72.33;100673.38;4845730;28;20045;-65
2022/11/08 10:37:13;;;;;;;16.35;8.25;;;;;;;-0.25;71.97;100663.56;4857757;28;20221;-65
2022/11/08 10:40:14;;;;;;;24.55;10.82;;;;;;;-0.35;71.00;100682.94;4788938;28;20487;-64
2022/11/08 10:43:17;;;;;;;37.58;15.25;;;;;;;-0.41;70.75;100689.56;4801874;28;20392;-64
2022/11/08 10:46:46;;;;;;;26.05;11.88;;;;;;;-0.35;71.39;100687.19;4855718;28;20172;-65
2022/11/08 10:49:39;;;;;;;19.50;10.45;;;;;;;-0.28;72.46;100687.44;4857002;28;20130;-63
2022/11/08 10:56:27;;;;;;;21.98;10.48;;;;;;;-0.40;72.88;100673.31;4812085;28;20660;-63
2022/11/08 10:59:39;;;;;;;17.92;9.38;;;;;;;-0.48;72.34;100684.19;4854768;28;20072;-63
2022/11/08 11:02:36;;;;;;;17.40;10.35;;;;;;;-0.64;71.81;100688.75;4842274;28;20120;-63
2022/11/08 11:05:30;;;;;;;16.35;10.57;;;;;;;-0.74;72.08;100695.25;4862416;28;20062;-64
2022/11/08 11:08:24;;;;;;;12.80;8.20;;;;;;;-0.76;72.29;100686.63;4852667;28;20050;-63
2022/11/08 11:11:25;;;;;;;12.63;6.90;;;;;;;-0.73;71.88;100689.28;4831631;28;20054;-63
2022/11/08 11:14:13;;;;;;;16.27;9.23;;;;;;;-0.67;72.10;100684.38;4836720;28;20125;-64
2022/11/08 11:17:08;;;;;;;27.77;14.73;;;;;;;-0.46;73.36;100695.41;4871263;28;20102;-63
2022/11/08 11:20:12;;;;;;;20.48;11.73;;;;;;;-0.43;73.07;100695.50;4860318;28;20144;-63
2022/11/08 11:22:55;;;;;;;19.00;10.27;;;;;;;-0.62;73.36;100649.50;4887950;28;20053;-63
2022/11/08 11:26:01;;;;;;;14.77;8.90;;;;;;;-0.29;73.47;100698.56;4874433;28;20083;-63
2022/11/08 11:29:11;;;;;;;16.02;8.65;;;;;;;-0.30;73.12;100706.19;4864724;28;20054;-63
2022/11/08 11:31:59;;;;;;;25.60;13.55;;;;;;;-0.21;74.21;100711.66;4897538;28;20046;-63
2022/11/08 11:34:57;;;;;;;19.92;11.05;;;;;;;-0.28;74.71;100709.69;4833759;28;20156;-64
2022/11/08 11:37:55;;;;;;;15.93;9.23;;;;;;;-0.27;75.08;100721.72;4865307;28;20057;-63
2022/11/08 11:40:43;;;;;;;14.73;7.78;;;;;;;-0.26;75.34;100720.91;4877750;28;20072;-63
2022/11/08 11:44:00;;;;;;;11.25;6.95;;;;;;;-0.43;74.97;100718.59;4882653;28;20060;-63
2022/11/08 11:47:00;;;;;;;14.35;7.90;;;;;;;-0.51;75.40;100717.47;4890766;28;20061;-63
2022/11/08 11:52:54;;;;;;;10.80;6.00;;;;;;;-0.71;74.98;100705.63;4858439;28;20214;-64
2022/11/08 11:56:13;;;;;;;14.10;7.53;;;;;;;-0.65;75.25;100734.06;4899778;28;20045;-63
2022/11/08 11:59:26;;;;;;;11.20;6.63;;;;;;;-0.73;75.33;100717.50;4819606;28;20050;-62
2022/11/08 12:02:38;;;;;;;14.75;7.53;;;;;;;-0.71;75.44;100728.72;4819677;28;20134;-63
2022/11/08 12:05:41;;;;;;;11.93;6.53;;;;;;;-0.83;74.30;100735.97;4763022;29;20107;-63
2022/11/08 12:08:43;;;;;;;12.93;7.13;;;;;;;-0.87;75.21;100738.41;4775028;29;20047;-64
2022/11/08 12:11:46;;;;;;;12.98;6.88;;;;;;;-0.85;75.57;100745.28;4777364;29;20066;-63
2022/11/08 12:18:26;;;;;;;13.52;6.95;;;;;;;-1.18;75.23;100756.00;4782286;29;20129;-63
2022/11/08 12:21:20;;;;;;;11.10;6.57;;;;;;;-1.28;75.06;100748.78;4784756;29;20044;-63
2022/11/08 12:24:23;;;;;;;10.70;6.65;;;;;;;-1.23;74.74;100767.78;4781541;29;20156;-64
2022/11/08 12:27:26;;;;;;;11.52;6.88;;;;;;;-1.25;74.79;100765.13;4770839;29;20048;-64
2022/11/08 12:30:30;;;;;;;14.20;7.85;;;;;;;-1.53;75.62;100722.16;4769028;29;20372;-64
2022/11/08 12:33:34;;;;;;;13.43;7.15;;;;;;;-1.24;75.90;100766.03;4772179;29;20049;-64
2022/11/08 12:36:28;;;;;;;18.85;9.05;;;;;;;-1.19;76.35;100764.53;4774528;28;20086;-63
2022/11/08 12:39:21;;;;;;;34.03;17.83;;;;;;;-1.21;76.11;100766.16;4807687;29;20118;-64
2022/11/08 12:42:18;;;;;;;31.08;16.23;;;;;;;-1.32;75.48;100758.91;4819522;28;20071;-63
2022/11/08 12:45:28;;;;;;;19.60;10.27;;;;;;;-1.36;75.53;100756.16;4919154;28;20051;-64
2022/11/08 12:49:07;;;;;;;17.33;10.13;;;;;;;-1.27;75.55;100755.63;4872993;28;20071;-64
2022/11/08 12:58:12;;;;;;;21.23;9.88;;;;;;;-1.20;76.17;100757.63;4855367;28;20054;-65
2022/11/08 13:00:53;;;;;;;19.55;10.15;;;;;;;-1.32;75.98;100758.91;4906489;28;20049;-64
2022/11/08 13:04:14;;;;;;;15.27;8.10;;;;;;;-1.47;75.92;100753.19;4839491;28;20050;-65
2022/11/08 13:07:13;;;;;;;11.30;6.80;;;;;;;-1.47;76.39;100752.28;4833871;28;20061;-64
2022/11/08 13:09:58;;;;;;;12.27;6.88;;;;;;;-1.50;75.61;100753.03;4869793;28;20050;-64
2022/11/08 13:12:55;;;;;;;10.82;7.15;;;;;;;-1.35;76.41;100753.69;4807581;28;20162;-65
2022/11/08 13:15:39;;;;;;;11.40;5.82;;;;;;;-1.25;76.34;100748.88;4840552;28;20047;-64
2022/11/08 13:21:42;;;;;;;18.13;9.48;;;;;;;-1.16;76.68;100723.63;4840318;28;20117;-64
2022/11/08 13:24:46;;;;;;;13.70;7.25;;;;;;;-0.94;76.70;100741.56;4853319;28;20058;-64
2022/11/08 13:27:55;;;;;;;14.05;8.02;;;;;;;-0.91;76.37;100736.53;4854474;28;20050;-65
2022/11/08 13:31:06;;;;;;;13.68;8.32;;;;;;;-0.86;76.42;100734.16;4847892;28;21535;-64
2022/11/08 13:34:26;;;;;;;13.55;7.47;;;;;;;-0.85;76.04;100735.03;4858313;28;20099;-64
2022/11/08 13:37:37;;;;;;;11.27;7.33;;;;;;;-0.80;76.22;100728.38;4755485;29;20086;-64
2022/11/08 13:40:45;;;;;;;21.98;9.07;;;;;;;-0.81;76.44;100734.31;4769943;29;20271;-65
2022/11/08 13:43:44;;;;;;;21.20;10.25;;;;;;;-0.88;76.83;100716.13;4807041;28;20051;-64
2022/11/08 13:46:53;;;;;;;168.77;75.60;;;;;;;-0.76;76.47;100725.97;4773602;29;20126;-64
2022/11/08 13:49:33;;;;;;;50.63;24.63;;;;;;;-0.85;76.58;100729.88;4797944;28;20062;-66
2022/11/08 13:53:07;;;;;;;77.80;33.35;;;;;;;-0.94;76.54;100731.31;4825987;28;20055;-64
2022/11/08 13:55:58;;;;;;;;;;;;;;;-1.07;76.04;100739.34;4817671;28;20062;-64
2022/11/08 13:58:47;;;;;;;55.55;26.15;;;;;;;-1.78;75.97;100618.72;4805680;28;20002;-65
2022/11/08 14:02:06;;;;;;;32.80;15.82;;;;;;;-1.14;76.96;100737.38;4839432;28;20082;-65
2022/11/08 14:04:49;;;;;;;20.48;11.43;;;;;;;-1.13;77.11;100745.09;4823226;28;20484;-64
2022/11/08 14:07:56;;;;;;;22.13;10.77;;;;;;;-1.18;77.37;100740.63;4810857;28;20099;-65
2022/11/08 14:11:27;;;;;;;20.63;11.63;;;;;;;-1.19;77.93;100734.63;4852619;28;20046;-65
2022/11/08 14:14:46;;;;;;;21.30;11.00;;;;;;;-1.08;77.55;100737.59;4845691;28;20272;-66
2022/11/08 14:18:05;;;;;;;22.42;11.27;;;;;;;-1.09;77.61;100740.97;4832818;28;20061;-64
2022/11/08 14:20:51;;;;;;;67.00;23.25;;;;;;;-1.40;77.39;100692.75;4831869;28;20043;-63
2022/11/08 14:23:44;;;;;;;30.00;14.68;;;;;;;-1.07;77.29;100739.34;4839749;28;20034;-65
2022/11/08 14:26:53;;;;;;;30.23;13.70;;;;;;;-1.09;76.76;100751.25;4853523;28;20050;-64
2022/11/08 14:29:42;;;;;;;27.63;12.50;;;;;;;-1.20;76.29;100742.25;4823040;28;20094;-63
2022/11/08 14:32:48;;;;;;;25.27;12.73;;;;;;;-1.17;76.55;100742.38;4774184;28;20064;-64
2022/11/08 14:38:27;;;;;;;26.25;13.80;;;;;;;-1.18;76.75;100740.63;4856609;28;20054;-65
2022/11/08 14:41:13;;;;;;;26.13;14.77;;;;;;;-1.60;76.76;100661.25;4809759;28;20110;-66
2022/11/08 14:44:19;;;;;;;29.50;15.25;;;;;;;-1.02;77.67;100732.72;4831675;28;20051;-65
2022/11/08 14:47:05;;;;;;;35.15;15.20;;;;;;;-0.88;78.26;100738.34;4813172;28;20051;-65
2022/11/08 14:49:52;;;;;;;26.17;12.73;;;;;;;-0.84;78.04;100727.38;4834241;28;20161;-66
2022/11/08 14:52:39;;;;;;;21.08;11.20;;;;;;;-0.82;78.65;100724.88;4823219;28;20042;-65
2022/11/08 14:55:41;;;;;;;38.95;18.20;;;;;;;-0.85;78.28;100724.75;4835343;28;20044;-65
2022/11/08 14:58:21;;;;;;;25.73;13.13;;;;;;;-0.74;78.56;100723.47;4817489;28;20073;-65
2022/11/08 15:04:24;;;;;;;31.98;15.95;;;;;;;-0.87;77.49;100723.03;4866115;28;20050;-65
2022/11/08 15:08:00;;;;;;;42.00;19.63;;;;;;;-1.02;76.36;100694.25;4832777;28;20150;-65
2022/11/08 15:10:59;;;;;;;48.65;22.02;;;;;;;-1.02;76.30;100701.94;4848705;28;20058;-65